createdAt,value
2022-11-07T00:00:50.318Z,0.93
2022-11-07T00:05:51.858Z,1.23
2022-11-07T00:10:54.482Z,1.10
2022-11-07T00:16:00.413Z,1.35
2022-11-07T00:21:06.884Z,1.33
2022-11-07T00:26:11.104Z,1.00
2022-11-07T00:31:13.872Z,1.02
2022-11-07T00:36:25.546Z,0.93
2022-11-07T00:41:27.391Z,1.20
2022-11-07T00:46:28.826Z,1.33
2022-11-07T00:51:30.197Z,1.73
2022-11-07T00:56:31.741Z,1.02
2022-11-07T01:01:34.308Z,1.30
2022-11-07T01:06:38.647Z,0.90
2022-11-07T01:11:41.539Z,1.67
2022-11-07T01:16:43.693Z,1.35
2022-11-07T01:21:45.586Z,1.30
2022-11-07T01:26:51.685Z,1.40
2022-11-07T01:31:53.093Z,1.20
2022-11-07T01:36:54.453Z,1.27
2022-11-07T01:41:56.019Z,1.55
2022-11-07T01:47:00.021Z,1.40
2022-11-07T01:52:10.194Z,1.85
2022-11-07T01:57:19.398Z,1.45
2022-11-07T02:02:24.087Z,1.55
2022-11-07T02:07:26.062Z,2.33
2022-11-07T02:12:27.811Z,1.58
2022-11-07T02:17:29.448Z,1.30
2022-11-07T02:23:16.139Z,0.98
2022-11-07T02:28:20.678Z,1.17
2022-11-07T02:33:23.246Z,1.10
2022-11-07T02:38:37.061Z,1.00
2022-11-07T02:43:42.945Z,1.40
2022-11-07T02:48:48.041Z,1.10
2022-11-07T02:53:49.500Z,1.20
2022-11-07T02:58:54.707Z,1.30
2022-11-07T03:03:56.550Z,1.60
2022-11-07T03:08:57.898Z,1.45
2022-11-07T03:13:59.281Z,1.30
2022-11-07T03:19:00.699Z,1.20
2022-11-07T03:24:02.096Z,1.30
2022-11-07T03:29:03.493Z,2.72
2022-11-07T03:34:04.869Z,1.52
2022-11-07T03:39:06.414Z,1.25
2022-11-07T03:44:07.947Z,1.40
2022-11-07T03:49:09.334Z,1.40
2022-11-07T03:54:10.745Z,1.50
2022-11-07T03:59:12.112Z,1.38
2022-11-07T04:04:13.504Z,1.95
2022-11-07T04:09:14.937Z,2.17
2022-11-07T04:14:34.999Z,1.85
2022-11-07T04:19:36.369Z,2.22
2022-11-07T04:24:41.562Z,2.30
2022-11-07T04:29:46.956Z,2.25
2022-11-07T04:34:48.322Z,1.70
2022-11-07T04:39:49.646Z,1.73
2022-11-07T04:44:51.152Z,1.80
2022-11-07T04:49:52.514Z,2.20
2022-11-07T04:54:53.936Z,2.00
2022-11-07T04:59:55.295Z,2.25
2022-11-07T05:04:56.651Z,2.03
2022-11-07T05:09:57.986Z,1.70
2022-11-07T05:14:59.369Z,1.55
2022-11-07T05:20:00.775Z,1.40
2022-11-07T05:25:02.176Z,1.13
2022-11-07T05:30:05.257Z,1.92
2022-11-07T05:35:06.869Z,1.25
2022-11-07T05:40:08.891Z,1.30
2022-11-07T05:45:10.636Z,1.35
2022-11-07T05:50:11.963Z,1.35
2022-11-07T05:55:13.329Z,1.38
2022-11-07T06:00:16.022Z,1.08
2022-11-07T06:05:20.481Z,1.50
2022-11-07T06:10:25.853Z,1.08
2022-11-07T06:15:29.044Z,1.30
2022-11-07T06:20:30.711Z,1.15
2022-11-07T06:25:32.898Z,1.58
2022-11-07T06:30:35.095Z,1.02
2022-11-07T06:35:36.678Z,1.58
2022-11-07T06:40:42.454Z,0.85
2022-11-07T06:45:44.920Z,1.63
2022-11-07T06:50:46.317Z,1.10
2022-11-07T06:55:47.637Z,1.92
2022-11-07T07:00:49.273Z,1.02
2022-11-07T07:05:50.669Z,0.90
2022-11-07T07:10:51.998Z,0.90
2022-11-07T07:15:54.928Z,1.00
2022-11-07T07:21:07.050Z,0.90
2022-11-07T07:26:13.054Z,1.05
2022-11-07T07:31:14.349Z,1.10
2022-11-07T07:36:20.506Z,1.13
2022-11-07T07:41:22.398Z,1.00
2022-11-07T07:46:23.995Z,0.85
2022-11-07T07:51:25.417Z,0.70
2022-11-07T07:56:27.298Z,0.70
2022-11-07T08:01:29.267Z,1.10
2022-11-07T08:06:31.045Z,1.13
2022-11-07T08:11:32.495Z,0.80
2022-11-07T08:16:33.989Z,0.70
2022-11-07T08:21:35.344Z,0.60
2022-11-07T08:26:37.998Z,1.00
2022-11-07T08:31:39.423Z,1.02
2022-11-07T08:36:40.966Z,0.70
2022-11-07T08:41:42.382Z,0.50
2022-11-07T08:46:43.742Z,0.60
2022-11-07T08:51:45.134Z,0.60
2022-11-07T08:56:46.638Z,0.75
2022-11-07T09:02:28.077Z,1.10
2022-11-07T09:07:09.399Z,0.60
2022-11-07T09:12:10.804Z,0.50
2022-11-07T09:17:12.189Z,0.55
2022-11-07T09:22:14.226Z,1.13
2022-11-07T09:27:15.589Z,0.73
2022-11-07T09:32:42.692Z,0.50
2022-11-07T09:37:39.334Z,0.73
2022-11-07T09:42:47.859Z,0.55
2022-11-07T09:47:59.254Z,1.95
2022-11-07T09:53:22.608Z,0.38
2022-11-07T09:58:34.555Z,0.80
2022-11-07T10:03:38.554Z,0.70
2022-11-07T10:08:45.730Z,0.50
2022-11-07T10:19:13.431Z,0.57
2022-11-07T10:24:31.536Z,0.80
2022-11-07T10:29:45.165Z,0.50
2022-11-07T10:34:54.591Z,0.80
2022-11-07T10:39:56.222Z,0.50
2022-11-07T10:44:59.283Z,0.50
2022-11-07T10:50:04.312Z,0.43
2022-11-07T10:55:08.082Z,0.40
2022-11-07T11:00:25.333Z,0.80
2022-11-07T11:05:33.715Z,0.73
2022-11-07T11:10:38.969Z,0.63
2022-11-07T11:15:45.645Z,0.50
2022-11-07T11:21:01.429Z,0.57
2022-11-07T11:26:08.818Z,1.15
2022-11-07T11:31:29.226Z,1.45
2022-11-07T11:36:39.285Z,0.95
2022-11-07T11:41:51.625Z,0.50
2022-11-07T11:47:27.024Z,0.90
2022-11-07T11:52:34.380Z,0.90
2022-11-07T11:57:50.133Z,0.60
2022-11-07T12:03:12.515Z,0.85
2022-11-07T12:08:44.136Z,1.30
2022-11-07T12:13:57.838Z,1.80
2022-11-07T12:19:29.404Z,0.45
2022-11-07T12:24:45.950Z,0.60
2022-11-07T12:30:04.219Z,0.43
2022-11-07T12:35:30.985Z,0.70
2022-11-07T12:40:54.342Z,0.50
2022-11-07T12:46:16.557Z,0.60
2022-11-07T12:51:31.860Z,1.25
2022-11-07T12:56:36.020Z,1.00
2022-11-07T13:01:45.158Z,0.55
2022-11-07T13:06:59.517Z,0.60
2022-11-07T13:12:25.539Z,0.50
2022-11-07T13:17:41.643Z,0.50
2022-11-07T13:22:43.073Z,0.70
2022-11-07T13:27:53.254Z,0.93
2022-11-07T13:32:54.585Z,0.52
2022-11-07T13:38:15.365Z,0.52
2022-11-07T13:43:44.519Z,1.05
2022-11-07T13:48:53.637Z,0.70
2022-11-07T13:54:27.477Z,0.60
2022-11-07T13:59:42.176Z,0.60
2022-11-07T14:05:14.920Z,0.70
2022-11-07T14:10:22.825Z,2.15
2022-11-07T14:15:24.455Z,0.68
2022-11-07T14:20:26.025Z,0.65
2022-11-07T14:25:31.332Z,0.35
2022-11-07T14:30:32.821Z,0.50
2022-11-07T14:35:35.608Z,0.60
2022-11-07T14:40:37.866Z,1.35
2022-11-07T14:46:10.784Z,0.50
2022-11-07T14:51:03.249Z,0.50
2022-11-07T14:56:13.430Z,1.60
2022-11-07T15:01:25.704Z,0.60
2022-11-07T15:06:41.061Z,0.75
2022-11-07T15:11:58.471Z,1.60
2022-11-07T15:22:05.120Z,1.75
2022-11-07T15:27:20.285Z,1.10
2022-11-07T15:32:24.663Z,0.57
2022-11-07T15:37:26.895Z,2.45
2022-11-07T15:42:28.414Z,1.20
2022-11-07T15:47:29.787Z,0.82
2022-11-07T15:52:31.108Z,0.80
2022-11-07T15:57:33.398Z,1.40
2022-11-07T16:02:34.866Z,1.40
2022-11-07T16:07:36.341Z,3.20
2022-11-07T16:12:37.698Z,1.45
2022-11-07T16:17:39.192Z,0.80
2022-11-07T16:22:40.567Z,1.52
2022-11-07T16:27:49.854Z,0.90
2022-11-07T16:32:51.212Z,0.77
2022-11-07T16:37:52.578Z,0.85
2022-11-07T16:42:53.921Z,0.70
2022-11-07T16:47:55.280Z,1.13
2022-11-07T16:52:56.627Z,0.90
2022-11-07T16:57:57.995Z,0.63
2022-11-07T17:02:59.508Z,0.82
2022-11-07T17:08:01.879Z,1.15
2022-11-07T17:13:03.232Z,1.75
2022-11-07T17:18:08.190Z,0.52
2022-11-07T17:23:09.872Z,0.93
2022-11-07T17:28:11.233Z,0.80
2022-11-07T17:33:12.616Z,0.80
2022-11-07T17:38:17.037Z,1.52
2022-11-07T17:43:18.854Z,1.92
2022-11-07T17:48:20.750Z,0.80
2022-11-07T17:53:22.086Z,0.95
2022-11-07T17:58:23.520Z,0.90
2022-11-07T18:03:24.952Z,0.90
2022-11-07T18:08:50.657Z,0.88
2022-11-07T18:13:50.549Z,1.00
2022-11-07T18:18:51.950Z,1.20
2022-11-07T18:23:53.647Z,1.83
2022-11-07T18:28:55.325Z,1.02
2022-11-07T18:33:58.798Z,1.00
2022-11-07T18:39:24.768Z,1.38
2022-11-07T18:44:26.124Z,1.27
2022-11-07T18:49:27.494Z,1.08
2022-11-07T18:54:29.804Z,1.05
2022-11-07T18:59:31.234Z,0.85
2022-11-07T19:04:33.874Z,1.02
2022-11-07T19:09:36.729Z,0.95
2022-11-07T19:14:38.103Z,1.27
2022-11-07T19:19:39.505Z,1.35
2022-11-07T19:24:40.925Z,1.38
2022-11-07T19:29:42.391Z,2.78
2022-11-07T19:34:43.857Z,1.00
2022-11-07T19:39:45.302Z,1.20
2022-11-07T19:44:51.619Z,2.25
2022-11-07T19:49:55.484Z,1.10
2022-11-07T19:54:56.919Z,1.25
2022-11-07T19:59:58.306Z,1.17
2022-11-07T20:04:59.929Z,0.88
2022-11-07T20:10:01.561Z,1.08
2022-11-07T20:15:03.337Z,1.38
2022-11-07T20:20:09.540Z,1.08
2022-11-07T20:25:14.708Z,1.25
2022-11-07T20:30:16.183Z,1.75
2022-11-07T20:35:17.614Z,1.35
2022-11-07T20:40:19.002Z,1.60
2022-11-07T20:45:20.407Z,1.67
2022-11-07T20:50:21.892Z,1.67
2022-11-07T20:55:23.269Z,1.92
2022-11-07T21:00:25.422Z,2.25
2022-11-07T21:05:26.904Z,2.63
2022-11-07T21:10:28.299Z,2.15
2022-11-07T21:15:29.710Z,1.85
2022-11-07T21:20:31.168Z,1.95
2022-11-07T21:25:42.859Z,3.65
2022-11-07T21:30:45.917Z,3.45
2022-11-07T21:35:47.367Z,2.65
2022-11-07T21:40:48.755Z,3.97
2022-11-07T21:45:50.204Z,3.80
2022-11-07T21:50:51.633Z,2.17
2022-11-07T21:55:53.006Z,2.88
2022-11-07T22:00:54.576Z,2.20
2022-11-07T22:05:55.956Z,2.63
2022-11-07T22:11:00.445Z,2.38
2022-11-07T22:16:07.419Z,2.47
2022-11-07T22:21:11.719Z,2.47
2022-11-07T22:26:19.066Z,2.33
2022-11-07T22:31:25.972Z,3.88
2022-11-07T22:36:28.426Z,2.70
2022-11-07T22:41:30.212Z,2.47
2022-11-07T22:46:31.759Z,2.92
2022-11-07T22:51:34.904Z,2.95
2022-11-07T22:56:36.892Z,2.20
2022-11-07T23:01:40.809Z,2.83
2022-11-07T23:06:42.264Z,2.97
2022-11-07T23:11:46.464Z,3.28
2022-11-07T23:16:55.481Z,2.83
2022-11-07T23:21:56.855Z,3.30
2022-11-07T23:26:58.284Z,3.17
2022-11-07T23:31:59.688Z,5.53
2022-11-07T23:37:03.041Z,4.53
2022-11-07T23:42:04.388Z,3.63
2022-11-07T23:47:24.251Z,4.40
2022-11-07T23:52:25.602Z,3.63
2022-11-07T23:57:26.931Z,3.92
